createdAt,value
2017-06-10T00:00:09.422Z,96.85
2017-06-10T00:01:09.393Z,97.28
2017-06-10T00:02:09.436Z,96.89
2017-06-10T00:03:09.058Z,97.47
2017-06-10T00:04:09.036Z,97.66
2017-06-10T00:05:09.028Z,97.19
2017-06-10T00:06:09.005Z,97.56
2017-06-10T00:07:09.301Z,97.66
2017-06-10T00:08:09.282Z,97.38
2017-06-10T00:09:09.262Z,98.14
2017-06-10T00:10:09.243Z,97.95
2017-06-10T00:11:08.963Z,97.86
2017-06-10T00:12:09.216Z,98.33
2017-06-10T00:13:09.201Z,98.62
2017-06-10T00:14:09.192Z,98.14
2017-06-10T00:15:08.851Z,98.33
2017-06-10T00:16:08.851Z,98.62
2017-06-10T00:17:09.142Z,98.72
2017-06-10T00:18:08.812Z,98.53
2017-06-10T00:19:08.792Z,98.33
2017-06-10T00:20:09.095Z,98.43
2017-06-10T00:21:09.061Z,98.53
2017-06-10T00:22:08.741Z,98.43
2017-06-10T00:23:09.030Z,98.43
2017-06-10T00:24:09.037Z,98.24
2017-06-10T00:25:08.697Z,98.33
2017-06-10T00:26:08.981Z,97.95
2017-06-10T00:27:08.972Z,98.14
2017-06-10T00:28:08.646Z,98.24
2017-06-10T00:29:08.930Z,98.43
2017-06-10T00:30:08.611Z,98.43
2017-06-10T00:31:08.900Z,98.53
2017-06-10T00:32:08.884Z,98.43
2017-06-10T00:33:08.870Z,98.43
2017-06-10T00:34:08.548Z,98.72
2017-06-10T00:35:08.842Z,98.53
2017-06-10T00:36:08.532Z,98.33
2017-06-10T00:37:08.801Z,98.33
2017-06-10T00:38:08.790Z,98.14
2017-06-10T00:39:08.771Z,98.24
2017-06-10T00:40:08.753Z,97.95
2017-06-10T00:41:08.753Z,98.14
2017-06-10T00:42:08.412Z,97.95
2017-06-10T00:43:08.707Z,98.14
2017-06-10T00:44:08.691Z,98.14
2017-06-10T00:45:08.679Z,98.14
2017-06-10T00:46:08.660Z,97.38
2017-06-10T00:47:08.642Z,97.56
2017-06-10T00:48:08.626Z,97.56
2017-06-10T00:49:08.292Z,97.56
2017-06-10T00:50:08.616Z,97.19
2017-06-10T00:51:08.570Z,97.19
2017-06-10T00:52:08.247Z,97.38
2017-06-10T00:53:08.229Z,97.38
2017-06-10T00:54:08.521Z,97.47
2017-06-10T00:55:08.512Z,97.23
2017-06-10T00:56:08.490Z,97.95
2017-06-10T00:57:08.475Z,98.05
2017-06-10T00:58:08.478Z,97.66
2017-06-10T00:59:08.142Z,97.47
2017-06-10T01:00:08.420Z,98.14
2017-06-10T01:01:08.422Z,97.38
2017-06-10T01:02:08.083Z,97.38
2017-06-10T01:03:08.383Z,98.05
2017-06-10T01:04:08.051Z,97.95
2017-06-10T01:05:08.339Z,97.9
2017-06-10T01:06:08.335Z,98.53
2017-06-10T01:07:08.315Z,98.67
2017-06-10T01:08:07.985Z,98.48
2017-06-10T01:09:08.271Z,98.67
2017-06-10T01:10:08.250Z,98.43
2017-06-10T01:11:08.250Z,97.95
2017-06-10T01:12:07.922Z,98.1
2017-06-10T01:13:08.210Z,98.14
2017-06-10T01:14:08.203Z,98.33
2017-06-10T01:15:08.173Z,98.38
2017-06-10T01:16:07.851Z,98.33
2017-06-10T01:17:08.192Z,97.81
2017-06-10T01:18:07.812Z,98.05
2017-06-10T01:19:08.110Z,97.71
2017-06-10T01:20:08.086Z,98
2017-06-10T01:21:08.082Z,98.05
2017-06-10T01:22:08.051Z,97.9
2017-06-10T01:23:07.731Z,98.43
2017-06-10T01:24:08.021Z,99.24
2017-06-10T01:25:08.003Z,99.44
2017-06-10T01:26:07.990Z,99.63
2017-06-10T01:27:07.662Z,99.99
2017-06-10T01:28:07.649Z,99.99
2017-06-10T01:29:07.942Z,99.99
2017-06-10T01:30:07.618Z,99.99
2017-06-10T01:31:07.904Z,99.99
2017-06-10T01:32:07.583Z,99.99
2017-06-10T01:33:07.942Z,99.99
2017-06-10T01:34:07.854Z,99.99
2017-06-10T01:35:07.849Z,99.99
2017-06-10T01:36:07.811Z,99.99
2017-06-10T01:37:07.497Z,99.99
2017-06-10T01:38:07.790Z,99.99
2017-06-10T01:39:07.775Z,99.99
2017-06-10T01:40:07.447Z,99.99
2017-06-10T01:41:07.743Z,99.99
2017-06-10T01:42:07.721Z,99.99
2017-06-10T01:43:07.699Z,99.99
2017-06-10T01:44:07.378Z,99.99
2017-06-10T01:45:07.669Z,99.99
2017-06-10T01:46:07.659Z,99.99
2017-06-10T01:47:07.640Z,99.99
2017-06-10T01:48:07.609Z,99.99
2017-06-10T01:49:07.294Z,99.99
2017-06-10T01:50:07.278Z,99.99
2017-06-10T01:51:07.271Z,99.99
2017-06-10T01:52:07.539Z,99.99
2017-06-10T01:53:07.532Z,99.99
2017-06-10T01:54:07.511Z,99.99
2017-06-10T01:55:07.502Z,99.99
2017-06-10T01:56:07.482Z,99.99
2017-06-10T01:57:07.160Z,99.99
2017-06-10T01:58:07.438Z,99.99
2017-06-10T01:59:07.431Z,99.99
2017-06-10T02:00:07.410Z,99.99
2017-06-10T02:01:07.399Z,99.99
2017-06-10T02:02:07.069Z,99.99
2017-06-10T02:03:07.359Z,99.99
2017-06-10T02:04:07.342Z,99.99
2017-06-10T02:05:07.016Z,99.99
2017-06-10T02:06:07.312Z,99.99
2017-06-10T02:07:07.282Z,99.99
2017-06-10T02:08:07.274Z,99.99
2017-06-10T02:09:07.252Z,99.99
2017-06-10T02:10:07.238Z,99.99
2017-06-10T02:11:07.227Z,99.99
2017-06-10T02:12:07.214Z,99.99
2017-06-10T02:13:07.191Z,99.99
2017-06-10T02:14:07.174Z,99.99
2017-06-10T02:15:07.148Z,99.99
2017-06-10T02:16:06.832Z,99.99
2017-06-10T02:17:07.124Z,99.99
2017-06-10T02:18:07.091Z,99.99
2017-06-10T02:19:06.781Z,99.99
2017-06-10T02:20:06.757Z,99.99
2017-06-10T02:21:06.746Z,99.99
2017-06-10T02:22:06.723Z,99.99
2017-06-10T02:23:07.011Z,99.99
2017-06-10T02:24:07.000Z,99.99
2017-06-10T02:25:06.975Z,99.99
2017-06-10T02:26:06.965Z,99.99
2017-06-10T02:27:06.637Z,99.99
2017-06-10T02:28:06.614Z,99.99
2017-06-10T02:29:06.910Z,99.99
2017-06-10T02:30:06.889Z,99.99
2017-06-10T02:31:06.571Z,99.99
2017-06-10T02:32:06.861Z,99.99
2017-06-10T02:33:06.853Z,99.99
2017-06-10T02:34:06.817Z,99.99
2017-06-10T02:35:06.803Z,99.99
2017-06-10T02:36:06.480Z,99.99
2017-06-10T02:37:06.779Z,99.99
2017-06-10T02:38:06.778Z,99.99
2017-06-10T02:39:06.747Z,99.99
2017-06-10T02:40:06.410Z,99.99
2017-06-10T02:41:06.402Z,99.99
2017-06-10T02:42:06.687Z,99.99
2017-06-10T02:43:06.664Z,99.99
2017-06-10T02:44:06.647Z,99.99
2017-06-10T02:45:06.653Z,99.99
2017-06-10T02:46:06.674Z,99.99
2017-06-10T02:47:06.295Z,99.99
2017-06-10T02:48:06.353Z,99.99
2017-06-10T02:49:06.561Z,99.99
2017-06-10T02:50:06.246Z,99.99
2017-06-10T02:51:06.521Z,99.99
2017-06-10T02:52:06.271Z,99.99
2017-06-10T02:53:06.174Z,99.99
2017-06-10T02:54:06.574Z,99.99
2017-06-10T02:55:06.163Z,99.99
2017-06-10T02:56:06.511Z,99.99
2017-06-10T02:57:06.423Z,99.99
2017-06-10T02:58:06.498Z,99.99
2017-06-10T02:59:06.072Z,99.99
2017-06-10T03:00:06.072Z,99.99
2017-06-10T03:01:06.343Z,99.99
2017-06-10T03:02:06.342Z,99.99
2017-06-10T03:03:06.009Z,99.99
2017-06-10T03:04:05.990Z,99.99
2017-06-10T03:05:06.304Z,99.99
2017-06-10T03:06:06.300Z,99.99
2017-06-10T03:07:06.334Z,99.99
2017-06-10T03:08:05.931Z,99.99
2017-06-10T03:09:06.266Z,99.99
2017-06-10T03:10:06.321Z,99.99
2017-06-10T03:11:06.174Z,99.99
2017-06-10T03:12:06.152Z,99.99
2017-06-10T03:13:06.138Z,99.99
2017-06-10T03:14:06.123Z,99.99
2017-06-10T03:15:06.123Z,99.99
2017-06-10T03:16:06.088Z,99.99
2017-06-10T03:17:05.754Z,99.99
2017-06-10T03:18:06.046Z,99.99
2017-06-10T03:19:06.028Z,99.99
2017-06-10T03:20:06.082Z,99.99
2017-06-10T03:21:06.105Z,99.99
2017-06-10T03:22:05.998Z,99.99
2017-06-10T03:23:05.951Z,99.99
2017-06-10T03:24:05.691Z,99.99
2017-06-10T03:25:05.921Z,99.99
2017-06-10T03:26:05.913Z,99.99
2017-06-10T03:27:05.903Z,99.99
2017-06-10T03:28:05.563Z,99.99
2017-06-10T03:29:05.844Z,99.99
2017-06-10T03:30:05.839Z,99.99
2017-06-10T03:31:05.938Z,99.99
2017-06-10T03:32:05.790Z,99.99
2017-06-10T03:33:05.872Z,99.99
2017-06-10T03:34:05.473Z,99.99
2017-06-10T03:35:05.438Z,99.99
2017-06-10T03:36:05.414Z,99.99
2017-06-10T03:37:05.918Z,99.99
2017-06-10T03:38:05.680Z,99.99
2017-06-10T03:39:05.685Z,99.99
2017-06-10T03:40:05.665Z,99.99
2017-06-10T03:41:05.733Z,99.99
2017-06-10T03:42:05.304Z,99.99
2017-06-10T03:43:05.618Z,99.99
2017-06-10T03:44:05.572Z,99.99
2017-06-10T03:45:05.246Z,99.99
2017-06-10T03:46:05.541Z,99.99
2017-06-10T03:47:05.220Z,99.99
2017-06-10T03:48:05.516Z,99.99
2017-06-10T03:49:05.488Z,99.99
2017-06-10T03:50:05.489Z,99.99
2017-06-10T03:51:05.455Z,99.99
2017-06-10T03:52:05.449Z,99.99
2017-06-10T03:53:05.430Z,99.99
2017-06-10T03:54:05.104Z,99.99
2017-06-10T03:55:05.082Z,99.99
2017-06-10T03:56:05.363Z,99.99
2017-06-10T03:57:05.363Z,99.99
2017-06-10T03:58:05.021Z,99.99
2017-06-10T03:59:05.311Z,99.99
2017-06-10T04:00:04.989Z,99.99
2017-06-10T04:01:04.961Z,99.99
2017-06-10T04:02:05.262Z,99.99
2017-06-10T04:03:05.241Z,99.99
2017-06-10T04:04:05.219Z,99.99
2017-06-10T04:05:05.212Z,99.99
2017-06-10T04:06:05.174Z,99.99
2017-06-10T04:07:05.181Z,99.99
2017-06-10T04:08:04.845Z,99.99
2017-06-10T04:09:05.131Z,99.99
2017-06-10T04:10:05.121Z,99.99
2017-06-10T04:11:04.781Z,99.99
2017-06-10T04:12:04.778Z,99.99
2017-06-10T04:13:05.073Z,99.99
2017-06-10T04:14:05.044Z,99.99
2017-06-10T04:15:05.031Z,99.99
2017-06-10T04:16:04.697Z,99.99
2017-06-10T04:17:04.989Z,99.99
2017-06-10T04:18:04.978Z,99.99
2017-06-10T04:19:04.946Z,99.99
2017-06-10T04:20:04.935Z,99.99
2017-06-10T04:21:04.616Z,99.99
2017-06-10T04:22:04.903Z,99.99
2017-06-10T04:23:04.887Z,99.99
2017-06-10T04:24:04.915Z,99.99
2017-06-10T04:25:04.852Z,99.99
2017-06-10T04:26:04.833Z,99.99
2017-06-10T04:27:04.813Z,99.99
2017-06-10T04:28:04.821Z,99.99
2017-06-10T04:29:04.775Z,99.99
2017-06-10T04:30:04.462Z,99.99
2017-06-10T04:31:04.453Z,99.99
2017-06-10T04:32:04.737Z,99.99
2017-06-10T04:33:04.702Z,99.99
2017-06-10T04:34:04.741Z,99.99
2017-06-10T04:35:04.361Z,99.99
2017-06-10T04:36:04.705Z,99.99
2017-06-10T04:37:04.651Z,99.99
2017-06-10T04:38:04.622Z,99.99
2017-06-10T04:39:04.603Z,99.99
2017-06-10T04:40:04.431Z,99.99
2017-06-10T04:41:04.261Z,99.99
2017-06-10T04:42:04.240Z,99.99
2017-06-10T04:43:04.538Z,99.99
2017-06-10T04:44:04.210Z,99.99
2017-06-10T04:45:04.501Z,99.99
2017-06-10T04:46:04.473Z,99.99
2017-06-10T04:47:04.151Z,99.99
2017-06-10T04:48:04.136Z,99.99
2017-06-10T04:49:04.441Z,99.99
2017-06-10T04:50:04.422Z,99.99
2017-06-10T04:51:04.402Z,99.99
2017-06-10T04:52:04.073Z,99.99
2017-06-10T04:53:04.361Z,99.99
2017-06-10T04:54:04.354Z,99.99
2017-06-10T04:55:04.323Z,99.99
2017-06-10T04:56:04.318Z,99.99
2017-06-10T04:57:03.974Z,99.99
2017-06-10T04:58:04.262Z,99.99
2017-06-10T04:59:03.940Z,99.99
2017-06-10T05:00:03.957Z,99.99
2017-06-10T05:01:04.261Z,99.99
2017-06-10T05:02:03.889Z,99.99
2017-06-10T05:03:04.184Z,99.99
2017-06-10T05:04:04.163Z,99.99
2017-06-10T05:05:03.832Z,99.99
2017-06-10T05:06:04.131Z,99.99
2017-06-10T05:07:04.111Z,99.99
2017-06-10T05:08:03.781Z,99.99
2017-06-10T05:09:03.767Z,99.99
2017-06-10T05:10:04.063Z,99.99
2017-06-10T05:11:04.040Z,99.99
2017-06-10T05:12:04.022Z,99.99
2017-06-10T05:13:04.010Z,99.99
2017-06-10T05:14:03.980Z,99.99
2017-06-10T05:15:04.005Z,99.99
2017-06-10T05:16:03.651Z,99.99
2017-06-10T05:17:03.933Z,99.99
2017-06-10T05:18:03.917Z,99.99
2017-06-10T05:19:03.901Z,99.99
2017-06-10T05:20:03.879Z,99.99
2017-06-10T05:21:03.570Z,99.99
2017-06-10T05:22:03.840Z,99.99
2017-06-10T05:23:03.528Z,99.99
2017-06-10T05:24:03.510Z,99.99
2017-06-10T05:25:03.491Z,99.99
2017-06-10T05:26:03.474Z,99.99
2017-06-10T05:27:03.458Z,99.99
2017-06-10T05:28:03.741Z,99.99
2017-06-10T05:29:03.763Z,99.99
2017-06-10T05:30:03.399Z,99.99
2017-06-10T05:31:03.702Z,99.99
2017-06-10T05:32:03.377Z,99.99
2017-06-10T05:33:03.355Z,99.99
2017-06-10T05:34:03.642Z,99.99
2017-06-10T05:35:03.622Z,99.99
2017-06-10T05:36:03.322Z,99.99
2017-06-10T05:37:03.612Z,99.99
2017-06-10T05:38:03.586Z,99.99
2017-06-10T05:39:03.571Z,99.99
2017-06-10T05:40:03.541Z,99.99
2017-06-10T05:41:03.221Z,99.99
2017-06-10T05:42:03.504Z,99.99
2017-06-10T05:43:03.190Z,99.99
2017-06-10T05:44:03.165Z,99.99
2017-06-10T05:45:03.453Z,99.99
2017-06-10T05:46:03.437Z,99.99
2017-06-10T05:47:03.431Z,99.99
2017-06-10T05:48:03.410Z,99.99
2017-06-10T05:49:03.420Z,99.99
2017-06-10T05:50:03.069Z,99.99
2017-06-10T05:51:03.347Z,99.99
2017-06-10T05:52:03.329Z,99.99
2017-06-10T05:53:03.025Z,99.99
2017-06-10T05:54:03.304Z,99.99
2017-06-10T05:55:02.975Z,99.99
2017-06-10T05:56:03.274Z,99.99
2017-06-10T05:57:02.940Z,99.99
2017-06-10T05:58:03.241Z,99.99
2017-06-10T05:59:02.906Z,99.99
2017-06-10T06:00:02.901Z,99.99
2017-06-10T06:01:03.187Z,99.99
2017-06-10T06:02:02.854Z,99.99
2017-06-10T06:03:03.143Z,99.99
2017-06-10T06:04:02.823Z,99.99
2017-06-10T06:05:02.805Z,99.99
2017-06-10T06:06:03.101Z,99.99
2017-06-10T06:07:02.770Z,99.99
2017-06-10T06:08:03.066Z,99.99
2017-06-10T06:09:02.760Z,99.34
2017-06-10T06:10:02.723Z,99.53
2017-06-10T06:11:03.020Z,99.1
2017-06-10T06:12:02.690Z,98.57
2017-06-10T06:13:02.986Z,98.53
2017-06-10T06:14:02.651Z,98.28
2017-06-10T06:15:02.645Z,98.43
2017-06-10T06:16:02.932Z,98.33
2017-06-10T06:17:02.602Z,98.14
2017-06-10T06:18:02.593Z,97.38
2017-06-10T06:19:02.884Z,97.38
2017-06-10T06:20:02.869Z,97.38
2017-06-10T06:21:02.846Z,97.09
2017-06-10T06:22:02.526Z,97.09
2017-06-10T06:23:02.522Z,97.66
2017-06-10T06:24:02.811Z,96.32
2017-06-10T06:25:02.534Z,96.22
2017-06-10T06:26:02.460Z,96.61
2017-06-10T06:27:02.482Z,96.99
2017-06-10T06:28:02.730Z,96.13
2017-06-10T06:29:02.713Z,95.94
2017-06-10T06:30:02.713Z,96.32
2017-06-10T06:31:02.691Z,96.22
2017-06-10T06:32:02.682Z,96.03
2017-06-10T06:33:02.394Z,96.22
2017-06-10T06:34:02.664Z,96.22
2017-06-10T06:35:02.640Z,95.89
2017-06-10T06:36:02.599Z,95.89
2017-06-10T06:37:02.385Z,96.27
2017-06-10T06:38:02.582Z,96.27
2017-06-10T06:39:02.561Z,95.79
2017-06-10T06:40:02.555Z,95.89
2017-06-10T06:41:02.532Z,95.31
2017-06-10T06:42:02.519Z,95.31
2017-06-10T06:43:02.612Z,94.93
2017-06-10T06:44:02.481Z,94.83
2017-06-10T06:45:02.591Z,95.12
2017-06-10T06:46:02.446Z,94.93
2017-06-10T06:47:02.446Z,94.78
2017-06-10T06:48:02.411Z,94.98
2017-06-10T06:49:02.411Z,94.78
2017-06-10T06:50:02.391Z,94.45
2017-06-10T06:51:02.484Z,94.54
2017-06-10T06:52:02.351Z,94.83
2017-06-10T06:53:02.145Z,94.93
2017-06-10T06:54:02.017Z,94.26
2017-06-10T06:55:02.410Z,94.54
2017-06-10T06:56:02.302Z,94.45
2017-06-10T06:57:02.401Z,95.03
2017-06-10T06:58:02.251Z,94.64
2017-06-10T06:59:02.242Z,94.31
2017-06-10T07:00:02.225Z,94.54
2017-06-10T07:01:01.964Z,94.11
2017-06-10T07:02:01.894Z,93.25
2017-06-10T07:03:01.863Z,93.15
2017-06-10T07:04:02.242Z,93.34
2017-06-10T07:05:02.157Z,93.54
2017-06-10T07:06:01.821Z,93.25
2017-06-10T07:07:01.849Z,93.25
2017-06-10T07:08:02.092Z,92.86
2017-06-10T07:09:02.078Z,92.67
2017-06-10T07:10:02.074Z,92.38
2017-06-10T07:11:02.052Z,92.57
2017-06-10T07:12:02.092Z,92.67
2017-06-10T07:13:02.019Z,92.77
2017-06-10T07:14:02.038Z,92.72
2017-06-10T07:15:01.985Z,92.52
2017-06-10T07:16:02.026Z,92.91
2017-06-10T07:17:01.969Z,92.43
2017-06-10T07:18:01.635Z,92.05
2017-06-10T07:19:01.928Z,91.28
2017-06-10T07:20:01.963Z,91.85
2017-06-10T07:21:01.594Z,91.95
2017-06-10T07:22:01.580Z,90.99
2017-06-10T07:23:01.872Z,91.08
2017-06-10T07:24:01.860Z,91.47
2017-06-10T07:25:01.524Z,90.89
2017-06-10T07:26:01.823Z,90.7
2017-06-10T07:27:01.510Z,90.84
2017-06-10T07:28:01.490Z,90.7
2017-06-10T07:29:01.771Z,90.31
2017-06-10T07:30:01.868Z,90.84
2017-06-10T07:31:01.752Z,89.98
2017-06-10T07:32:01.726Z,90.07
2017-06-10T07:33:01.720Z,89.88
2017-06-10T07:34:01.395Z,89.21
2017-06-10T07:35:01.681Z,89.59
2017-06-10T07:36:01.351Z,89.01
2017-06-10T07:37:01.411Z,89.21
2017-06-10T07:38:01.632Z,88.06
2017-06-10T07:39:01.612Z,87.96
2017-06-10T07:40:01.606Z,88.44
2017-06-10T07:41:01.589Z,88
2017-06-10T07:42:01.271Z,88.19
2017-06-10T07:43:01.562Z,87.42
2017-06-10T07:44:01.554Z,86.02
2017-06-10T07:45:01.540Z,85.35
2017-06-10T07:46:01.516Z,85.78
2017-06-10T07:47:01.512Z,85.69
2017-06-10T07:48:01.487Z,85.69
2017-06-10T07:49:01.162Z,85.02
2017-06-10T07:50:01.451Z,85.5
2017-06-10T07:51:01.443Z,85.5
2017-06-10T07:52:01.423Z,85.44
2017-06-10T07:53:01.441Z,86.02
2017-06-10T07:54:01.096Z,85.44
2017-06-10T07:55:01.382Z,85.64
2017-06-10T07:56:01.072Z,85.06
2017-06-10T07:57:01.369Z,84
2017-06-10T07:58:01.337Z,84.1
2017-06-10T07:59:01.032Z,84.19
2017-06-10T08:00:01.312Z,84.23
2017-06-10T08:01:01.302Z,84.43
2017-06-10T08:02:01.296Z,84.91
2017-06-10T08:03:00.951Z,83.99
2017-06-10T08:04:01.251Z,83.51
2017-06-10T08:05:01.238Z,83.12
2017-06-10T08:06:00.924Z,83.51
2017-06-10T08:07:01.211Z,83.22
2017-06-10T08:08:00.892Z,82.1
2017-06-10T08:09:01.205Z,81.87
2017-06-10T08:10:00.874Z,82.74
2017-06-10T08:11:01.168Z,82.68
2017-06-10T08:12:01.202Z,82.45
2017-06-10T08:13:01.134Z,83.51
2017-06-10T08:14:01.125Z,83.7
2017-06-10T08:15:01.114Z,83.22
2017-06-10T08:16:01.083Z,82.39
2017-06-10T08:17:01.074Z,82.01
2017-06-10T08:18:00.756Z,82.16
2017-06-10T08:19:01.045Z,82.59
2017-06-10T08:20:01.046Z,82.49
2017-06-10T08:21:01.021Z,82.87
2017-06-10T08:22:01.014Z,82.45
2017-06-10T08:23:00.996Z,82.26
2017-06-10T08:24:00.993Z,82.01
2017-06-10T08:25:00.968Z,82.1
2017-06-10T08:26:00.960Z,82.2
2017-06-10T08:27:00.943Z,82.29
2017-06-10T08:28:00.925Z,82.01
2017-06-10T08:29:00.912Z,81.72
2017-06-10T08:30:00.917Z,81.91
2017-06-10T08:31:00.912Z,81.47
2017-06-10T08:32:00.994Z,81.95
2017-06-10T08:33:00.864Z,81.76
2017-06-10T08:34:00.864Z,82.53
2017-06-10T08:35:00.841Z,81.95
2017-06-10T08:36:00.845Z,81.27
2017-06-10T08:37:00.514Z,81.76
2017-06-10T08:38:00.919Z,80.83
2017-06-10T08:39:00.804Z,80.16
2017-06-10T08:40:00.886Z,80
2017-06-10T08:41:00.461Z,80.16
2017-06-10T08:42:00.762Z,80.06
2017-06-10T08:43:00.731Z,80.83
2017-06-10T08:44:00.421Z,80.83
2017-06-10T08:45:00.411Z,81.12
2017-06-10T08:46:00.704Z,80.74
2017-06-10T08:47:00.694Z,80.45
2017-06-10T08:48:00.437Z,80.35
2017-06-10T08:49:00.663Z,80.16
2017-06-10T08:50:00.715Z,80.45
2017-06-10T08:51:00.735Z,80.45
2017-06-10T08:52:00.642Z,80.54
2017-06-10T08:53:00.310Z,80.54
2017-06-10T08:54:00.604Z,79.77
2017-06-10T08:55:00.283Z,79.68
2017-06-10T08:56:00.275Z,79
2017-06-10T08:57:00.620Z,79.04
2017-06-10T08:58:00.553Z,79.04
2017-06-10T08:59:00.549Z,79.33
2017-06-10T09:00:00.523Z,78.56
2017-06-10T09:01:00.223Z,78.27
2017-06-10T09:02:00.198Z,78.61
2017-06-10T09:03:00.495Z,78.61
2017-06-10T09:04:00.477Z,79.19
2017-06-10T09:05:00.462Z,78.81
2017-06-10T09:06:00.153Z,78.13
2017-06-10T09:07:00.438Z,77.69
2017-06-10T09:08:00.422Z,77.21
2017-06-10T09:09:00.434Z,77.4
2017-06-10T09:10:00.096Z,77.75
2017-06-10T09:11:00.388Z,78.42
2017-06-10T09:12:00.068Z,78.17
2017-06-10T09:13:00.061Z,77.59
2017-06-10T09:14:00.051Z,77.98
2017-06-10T09:15:00.348Z,77.73
2017-06-10T09:16:00.327Z,77.44
2017-06-10T09:17:00.333Z,76.86
2017-06-10T09:18:00.302Z,77.5
2017-06-10T09:19:00.296Z,77.01
2017-06-10T09:20:00.291Z,77.21
2017-06-10T09:20:59.979Z,77.3
2017-06-10T09:22:00.253Z,76.43
2017-06-10T09:23:00.242Z,75.51
2017-06-10T09:24:00.229Z,75.89
2017-06-10T09:25:00.213Z,76.18
2017-06-10T09:26:00.215Z,75.41
2017-06-10T09:27:00.199Z,75.51
2017-06-10T09:28:00.193Z,75.41
2017-06-10T09:28:59.897Z,76.47
2017-06-10T09:30:00.154Z,75.89
2017-06-10T09:31:00.154Z,75.74
2017-06-10T09:32:00.135Z,74.58
2017-06-10T09:33:00.143Z,74.29
2017-06-10T09:34:00.121Z,73.84
2017-06-10T09:35:00.104Z,73.55
2017-06-10T09:36:00.094Z,72.52
2017-06-10T09:37:00.085Z,71.75
2017-06-10T09:38:00.073Z,71.94
2017-06-10T09:39:00.058Z,72.42
2017-06-10T09:40:00.060Z,72.42
2017-06-10T09:41:00.042Z,71.98
2017-06-10T09:42:00.028Z,71.01
2017-06-10T09:43:00.036Z,72.27
2017-06-10T09:43:59.724Z,71.78
2017-06-10T09:44:59.995Z,72.75
2017-06-10T09:46:00.004Z,72.21
2017-06-10T09:46:59.994Z,70.89
2017-06-10T09:47:59.675Z,70.89
2017-06-10T09:48:59.966Z,70.4
2017-06-10T09:49:59.999Z,71.18
2017-06-10T09:50:59.963Z,70.86
2017-06-10T09:51:59.941Z,69.63
2017-06-10T09:52:59.937Z,70.66
2017-06-10T09:53:59.935Z,70.43
2017-06-10T09:54:59.605Z,70.82
2017-06-10T09:55:59.915Z,71.17
2017-06-10T09:56:59.895Z,72.36
2017-06-10T09:57:59.905Z,72.39
2017-06-10T09:58:59.884Z,71.84
2017-06-10T09:59:59.870Z,72.24
2017-06-10T10:00:59.864Z,73.07
2017-06-10T10:01:59.863Z,72.78
2017-06-10T10:02:59.533Z,72.91
2017-06-10T10:03:59.840Z,71.2
2017-06-10T10:04:59.523Z,71.3
2017-06-10T10:05:59.509Z,71.98
2017-06-10T10:06:59.815Z,71.2
2017-06-10T10:07:59.495Z,72.42
2017-06-10T10:08:59.483Z,71.84
2017-06-10T10:09:59.783Z,72.39
2017-06-10T10:10:59.465Z,72.2
2017-06-10T10:11:59.768Z,71.36
2017-06-10T10:12:59.752Z,71.01
2017-06-10T10:13:59.472Z,71.36
2017-06-10T10:14:59.732Z,72.04
2017-06-10T10:15:59.734Z,72.56
2017-06-10T10:16:59.715Z,71.2
2017-06-10T10:17:59.398Z,70.27
2017-06-10T10:18:59.691Z,70.47
2017-06-10T10:19:59.694Z,70.47
2017-06-10T10:20:59.671Z,70.37
2017-06-10T10:21:59.672Z,69.63
2017-06-10T10:22:59.652Z,68.99
2017-06-10T10:23:59.652Z,68.02
2017-06-10T10:24:59.631Z,68.4
2017-06-10T10:25:59.629Z,68.85
2017-06-10T10:26:59.621Z,70.01
2017-06-10T10:27:59.613Z,70.27
2017-06-10T10:28:59.299Z,69.98
2017-06-10T10:29:59.592Z,69.82
2017-06-10T10:30:59.588Z,69.53
2017-06-10T10:31:59.575Z,69.34
2017-06-10T10:32:59.566Z,68.21
2017-06-10T10:33:59.571Z,68.02
2017-06-10T10:34:59.551Z,67.92
2017-06-10T10:35:59.539Z,67.37
2017-06-10T10:36:59.538Z,66.6
2017-06-10T10:37:59.217Z,66.66
2017-06-10T10:38:59.212Z,67.24
2017-06-10T10:39:59.515Z,68.02
2017-06-10T10:40:59.516Z,67.37
2017-06-10T10:41:59.487Z,68.6
2017-06-10T10:42:59.480Z,68.66
2017-06-10T10:43:59.165Z,68.76
2017-06-10T10:44:59.469Z,69.24
2017-06-10T10:45:59.451Z,69.34
2017-06-10T10:46:59.450Z,69.43
2017-06-10T10:47:59.436Z,69.98
2017-06-10T10:48:59.124Z,70.76
2017-06-10T10:49:59.417Z,71.3
2017-06-10T10:50:59.413Z,70.24
2017-06-10T10:51:59.412Z,69.11
2017-06-10T10:52:59.085Z,69.85
2017-06-10T10:53:59.383Z,69.21
2017-06-10T10:54:59.368Z,68.66
2017-06-10T10:55:59.056Z,68.82
2017-06-10T10:56:59.380Z,68.95
2017-06-10T10:57:59.343Z,68.56
2017-06-10T10:58:59.332Z,68.18
2017-06-10T10:59:59.026Z,69.11
2017-06-10T11:00:59.319Z,69.4
2017-06-10T11:01:59.313Z,69.11
2017-06-10T11:02:59.298Z,69.37
2017-06-10T11:03:58.986Z,69.79
2017-06-10T11:04:59.281Z,70.08
2017-06-10T11:05:58.961Z,68.76
2017-06-10T11:06:59.011Z,69.31
2017-06-10T11:07:59.250Z,68.63
2017-06-10T11:08:59.250Z,69.31
2017-06-10T11:09:58.923Z,69.34
2017-06-10T11:10:58.971Z,68.76
2017-06-10T11:11:58.910Z,68.76
2017-06-10T11:12:59.202Z,67.34
2017-06-10T11:13:58.895Z,66.27
2017-06-10T11:14:58.972Z,66.37
2017-06-10T11:15:58.868Z,66.47
2017-06-10T11:16:58.894Z,67.05
2017-06-10T11:17:59.159Z,66.4
2017-06-10T11:18:59.156Z,65.53
2017-06-10T11:19:58.830Z,66.56
2017-06-10T11:20:59.250Z,67.63
2017-06-10T11:21:59.133Z,67.34
2017-06-10T11:22:59.202Z,67.53
2017-06-10T11:23:59.111Z,66.89
2017-06-10T11:24:58.894Z,66.66
2017-06-10T11:25:58.778Z,67.34
2017-06-10T11:26:58.895Z,67.34
2017-06-10T11:27:59.064Z,66.69
2017-06-10T11:28:59.070Z,65.82
2017-06-10T11:29:59.051Z,65.43
2017-06-10T11:30:59.048Z,65.37
2017-06-10T11:31:59.035Z,65.27
2017-06-10T11:32:59.033Z,65.66
2017-06-10T11:33:59.009Z,65.47
2017-06-10T11:34:59.019Z,66.44
2017-06-10T11:35:59.011Z,65.75
2017-06-10T11:36:58.997Z,65.95
2017-06-10T11:37:59.091Z,65.17
2017-06-10T11:38:58.659Z,64.01
2017-06-10T11:39:58.963Z,63.33
2017-06-10T11:40:58.957Z,64.3
2017-06-10T11:41:58.965Z,64.01
2017-06-10T11:42:58.940Z,64.01
2017-06-10T11:43:58.933Z,64.27
2017-06-10T11:44:58.919Z,64.75
2017-06-10T11:45:58.919Z,64.56
2017-06-10T11:46:58.603Z,64.59
2017-06-10T11:47:58.902Z,63.91
2017-06-10T11:48:58.893Z,64.11
2017-06-10T11:49:58.880Z,63.26
2017-06-10T11:50:58.858Z,62.59
2017-06-10T11:51:58.624Z,61.74
2017-06-10T11:52:58.844Z,62.68
2017-06-10T11:53:58.833Z,62.71
2017-06-10T11:54:58.830Z,62.04
2017-06-10T11:55:58.818Z,61.65
2017-06-10T11:56:58.511Z,62.39
2017-06-10T11:57:58.509Z,62.32
2017-06-10T11:58:58.808Z,63.42
2017-06-10T11:59:58.535Z,60.93
2017-06-10T12:00:58.476Z,61.16
2017-06-10T12:01:58.773Z,62.19
2017-06-10T12:02:58.763Z,61.94
2017-06-10T12:03:58.758Z,61.61
2017-06-10T12:04:58.763Z,62.46
2017-06-10T12:05:58.751Z,63.4
2017-06-10T12:06:58.730Z,63.72
2017-06-10T12:07:58.790Z,63.13
2017-06-10T12:08:58.729Z,62.01
2017-06-10T12:09:58.789Z,62.1
2017-06-10T12:10:58.734Z,62.36
2017-06-10T12:11:58.746Z,62.65
2017-06-10T12:12:58.790Z,63.3
2017-06-10T12:13:58.781Z,63.78
2017-06-10T12:14:58.728Z,62.13
2017-06-10T12:15:58.658Z,61.85
2017-06-10T12:16:58.649Z,61.91
2017-06-10T12:17:58.639Z,61.17
2017-06-10T12:18:58.620Z,62.23
2017-06-10T12:19:58.620Z,62.26
2017-06-10T12:20:58.618Z,62.68
2017-06-10T12:21:58.299Z,61.65
2017-06-10T12:22:58.582Z,61.71
2017-06-10T12:23:58.568Z,62.04
2017-06-10T12:24:58.258Z,60.68
2017-06-10T12:25:58.555Z,61.52
2017-06-10T12:26:58.568Z,62.1
2017-06-10T12:27:58.547Z,62.71
2017-06-10T12:28:58.527Z,61.68
2017-06-10T12:29:58.218Z,61.51
2017-06-10T12:30:58.209Z,60.83
2017-06-10T12:31:58.515Z,60.64
2017-06-10T12:32:58.494Z,59.86
2017-06-10T12:33:58.489Z,59.15
2017-06-10T12:34:58.173Z,60.12
2017-06-10T12:35:58.521Z,60.97
2017-06-10T12:36:58.462Z,61.42
2017-06-10T12:37:58.449Z,61.42
2017-06-10T12:38:58.488Z,60.68
2017-06-10T12:39:58.439Z,59.12
2017-06-10T12:40:58.169Z,59.22
2017-06-10T12:41:58.113Z,59.38
2017-06-10T12:42:58.111Z,60.09
2017-06-10T12:43:58.403Z,59.51
2017-06-10T12:44:58.081Z,59.25
2017-06-10T12:45:58.398Z,58.93
2017-06-10T12:46:58.374Z,59
2017-06-10T12:47:58.371Z,59.03
2017-06-10T12:48:58.363Z,60.03
2017-06-10T12:49:58.355Z,60.58
2017-06-10T12:50:58.360Z,60.13
2017-06-10T12:51:58.340Z,60.97
2017-06-10T12:52:58.340Z,60.71
2017-06-10T12:53:58.326Z,60.61